Time;durP1;ratioP1;P1;durP2;ratioP2;P2;SDS_P1;SDS_P2;PMS_P1;PMS_P2;Temp;Humidity;BMP_temperature;BMP_pressure;BME280_temperature;BME280_humidity;BME280_pressure;Samples;Min_cycle;Max_cycle;Signal;HPM_P1;HPM_P2
2023/06/22 00:00:49;;;;;;;5.90;4.93;;;25.50;56.30;;;;;;5093929;28;20457;-70
2023/06/22 00:03:16;;;;;;;6.20;5.70;;;25.50;56.60;;;;;;5094688;28;20892;-70
2023/06/22 00:05:43;;;;;;;5.93;5.33;;;25.40;56.60;;;;;;5093813;28;20443;-70
2023/06/22 00:08:10;;;;;;;6.73;6.13;;;25.40;56.80;;;;;;5095067;28;20561;-70
2023/06/22 00:10:36;;;;;;;6.73;5.73;;;25.40;56.80;;;;;;5094660;28;20486;-70
2023/06/22 00:13:03;;;;;;;6.13;4.80;;;25.30;56.70;;;;;;5093701;28;20972;-70
2023/06/22 00:15:30;;;;;;;5.67;5.07;;;25.30;56.80;;;;;;5094300;28;20843;-70
2023/06/22 00:17:59;;;;;;;5.33;4.80;;;25.30;57.00;;;;;;5094431;28;20459;-70
2023/06/22 00:20:27;;;;;;;6.30;5.70;;;25.30;57.30;;;;;;5094649;28;20491;-70
2023/06/22 00:22:54;;;;;;;7.00;6.40;;;25.20;57.50;;;;;;5104677;28;20478;-70
2023/06/22 00:25:21;;;;;;;6.73;6.07;;;25.10;57.30;;;;;;5097744;28;20452;-70
2023/06/22 00:27:48;;;;;;;5.90;5.40;;;25.10;57.40;;;;;;5097424;28;20802;-71
2023/06/22 00:30:15;;;;;;;6.33;5.73;;;25.10;57.50;;;;;;5095581;28;20531;-70
2023/06/22 00:32:42;;;;;;;7.93;5.60;;;25.10;57.60;;;;;;5094879;28;20467;-70
2023/06/22 00:35:11;;;;;;;6.23;5.07;;;25.10;57.60;;;;;;5093765;28;20450;-70
2023/06/22 00:37:40;;;;;;;6.80;5.60;;;25.10;57.70;;;;;;5095170;28;20455;-70
2023/06/22 00:40:09;;;;;;;6.20;5.70;;;25.10;57.80;;;;;;5094943;28;20444;-70
2023/06/22 00:42:35;;;;;;;6.27;5.67;;;25.10;57.80;;;;;;5095274;28;20519;-68
2023/06/22 00:45:02;;;;;;;6.33;5.83;;;25.10;58.00;;;;;;5094943;28;20849;-69
2023/06/22 00:47:29;;;;;;;7.03;6.10;;;25.10;57.90;;;;;;5094934;28;20508;-70
2023/06/22 00:49:56;;;;;;;6.13;5.10;;;25.00;58.00;;;;;;5093725;28;20451;-69
2023/06/22 00:52:28;;;;;;;5.87;5.40;;;25.00;58.20;;;;;;5094407;28;20471;-69
2023/06/22 00:54:56;;;;;;;5.93;5.43;;;25.00;58.30;;;;;;5094190;28;20435;-69
2023/06/22 00:57:27;;;;;;;5.90;5.07;;;24.90;58.40;;;;;;5094104;28;20455;-69
2023/06/22 00:59:54;;;;;;;7.10;5.60;;;24.90;58.60;;;;;;5092618;28;20436;-69
2023/06/22 01:02:21;;;;;;;6.53;5.93;;;24.90;58.70;;;;;;5093878;28;20467;-69
2023/06/22 01:04:48;;;;;;;5.90;5.40;;;24.90;58.70;;;;;;5093983;28;20472;-69
2023/06/22 01:07:22;;;;;;;5.97;5.47;;;24.90;58.80;;;;;;5095293;28;20444;-69
2023/06/22 01:09:58;;;;;;;7.20;5.97;;;24.80;59.10;;;;;;5099344;28;20450;-68
2023/06/22 01:12:28;;;;;;;6.33;5.73;;;24.80;59.10;;;;;;5094817;28;20491;-69
2023/06/22 01:15:03;;;;;;;6.57;5.90;;;24.80;59.20;;;;;;5094230;28;20428;-69
2023/06/22 01:17:30;;;;;;;6.20;5.60;;;24.70;59.50;;;;;;5093811;28;20443;-69
2023/06/22 01:19:59;;;;;;;7.20;6.23;;;24.70;59.50;;;;;;5093604;28;20931;-68
2023/06/22 01:22:31;;;;;;;6.00;5.33;;;24.70;59.50;;;;;;5092592;28;20561;-68
2023/06/22 01:25:09;;;;;;;5.87;5.33;;;24.70;59.60;;;;;;5098688;28;20463;-69
2023/06/22 01:27:45;;;;;;;6.57;5.50;;;24.70;59.70;;;;;;5100545;28;20431;-69
2023/06/22 01:30:16;;;;;;;5.30;4.80;;;24.60;60.00;;;;;;5101109;28;20784;-69
2023/06/22 01:32:44;;;;;;;6.47;5.60;;;24.60;60.00;;;;;;5100411;28;20471;-68
2023/06/22 01:35:13;;;;;;;7.40;6.07;;;24.60;59.90;;;;;;5099779;28;20455;-69
2023/06/22 01:37:40;;;;;;;6.70;5.50;;;24.60;60.00;;;;;;5099231;28;20443;-69
2023/06/22 01:40:09;;;;;;;7.97;5.50;;;24.50;60.00;;;;;;5100244;28;20808;-68
2023/06/22 01:42:37;;;;;;;6.10;5.50;;;24.50;60.40;;;;;;5100232;28;20463;-69
2023/06/22 01:45:05;;;;;;;5.77;5.17;;;24.40;60.20;;;;;;5100142;28;20475;-69
2023/06/22 01:47:34;;;;;;;5.33;4.83;;;24.40;60.50;;;;;;5099770;28;20940;-69
2023/06/22 01:50:01;;;;;;;5.27;4.83;;;24.40;60.70;;;;;;5098823;28;20967;-69
2023/06/22 01:52:28;;;;;;;6.33;5.50;;;24.30;60.70;;;;;;5100205;28;20866;-68
2023/06/22 01:54:57;;;;;;;5.77;5.20;;;24.30;60.90;;;;;;5100017;28;20439;-69
2023/06/22 01:57:24;;;;;;;6.13;5.33;;;24.30;61.10;;;;;;5099599;28;20444;-69
2023/06/22 01:59:57;;;;;;;9.40;6.00;;;24.20;61.30;;;;;;5100196;28;20530;-69
2023/06/22 02:02:29;;;;;;;5.50;5.00;;;24.20;61.40;;;;;;5100221;28;20472;-68
2023/06/22 02:05:00;;;;;;;7.50;6.20;;;24.20;61.90;;;;;;5100103;28;20490;-69
2023/06/22 02:07:33;;;;;;;5.87;5.37;;;24.10;62.00;;;;;;5100809;28;20446;-69
2023/06/22 02:10:03;;;;;;;6.30;4.90;;;24.10;62.30;;;;;;5099980;28;20442;-69
2023/06/22 02:12:31;;;;;;;6.03;5.43;;;24.10;62.40;;;;;;5100182;28;20916;-69
2023/06/22 02:15:00;;;;;;;6.80;6.10;;;24.00;62.60;;;;;;5098927;28;20788;-69
2023/06/22 02:17:27;;;;;;;6.60;5.27;;;24.00;63.00;;;;;;5099781;28;20456;-70
2023/06/22 02:19:54;;;;;;;6.80;6.20;;;23.90;63.30;;;;;;5100030;28;20431;-69
2023/06/22 02:22:23;;;;;;;6.17;5.33;;;23.90;63.80;;;;;;5099661;28;20512;-69
2023/06/22 02:24:50;;;;;;;7.23;6.33;;;23.90;64.30;;;;;;5099860;28;21000;-69
2023/06/22 02:27:17;;;;;;;6.00;5.50;;;23.80;64.40;;;;;;5099770;28;20500;-69
2023/06/22 02:29:44;;;;;;;7.53;6.80;;;23.80;64.80;;;;;;5099596;28;20936;-69
2023/06/22 02:32:11;;;;;;;7.67;6.67;;;23.80;65.00;;;;;;5099378;28;20979;-68
2023/06/22 02:34:37;;;;;;;7.50;6.70;;;23.80;65.20;;;;;;5099741;28;20493;-69
2023/06/22 02:37:05;;;;;;;7.17;6.53;;;23.80;65.40;;;;;;5105801;28;20455;-69
2023/06/22 02:39:33;;;;;;;7.83;6.30;;;23.80;65.50;;;;;;5099550;28;20823;-69
2023/06/22 02:42:00;;;;;;;6.93;6.30;;;23.80;66.00;;;;;;5097796;28;20474;-69
2023/06/22 02:44:26;;;;;;;8.03;7.23;;;23.80;66.30;;;;;;5097343;28;20486;-70
2023/06/22 02:46:54;;;;;;;8.47;6.87;;;23.80;66.60;;;;;;5096573;28;20448;-69
2023/06/22 02:49:21;;;;;;;9.40;7.43;;;23.80;66.80;;;;;;5096088;28;20952;-69
2023/06/22 02:51:48;;;;;;;9.80;6.53;;;23.80;66.80;;;;;;5096485;28;20439;-69
2023/06/22 02:54:16;;;;;;;7.10;6.40;;;23.80;67.30;;;;;;5096349;28;20466;-69
2023/06/22 02:56:44;;;;;;;8.57;6.37;;;23.80;67.30;;;;;;5096248;28;20455;-69
2023/06/22 02:59:11;;;;;;;7.00;6.37;;;23.80;67.40;;;;;;5096001;28;20447;-69
2023/06/22 03:01:39;;;;;;;7.70;7.00;;;23.80;67.60;;;;;;5096119;28;20460;-69
2023/06/22 03:04:06;;;;;;;6.97;6.37;;;23.80;67.80;;;;;;5095927;28;20475;-69
2023/06/22 03:06:33;;;;;;;8.93;7.23;;;23.80;67.80;;;;;;5096321;28;20471;-69
2023/06/22 03:09:01;;;;;;;9.47;7.27;;;23.80;68.00;;;;;;5094516;28;20501;-69
2023/06/22 03:11:28;;;;;;;8.80;7.37;;;23.80;68.10;;;;;;5096141;28;20456;-69
2023/06/22 03:13:56;;;;;;;7.80;6.90;;;23.80;68.40;;;;;;5095933;28;20558;-69
2023/06/22 03:16:23;;;;;;;7.73;6.87;;;23.80;68.50;;;;;;5095518;28;20956;-69
2023/06/22 03:18:50;;;;;;;7.80;7.00;;;23.80;68.70;;;;;;5095237;28;20864;-69
2023/06/22 03:21:16;;;;;;;7.40;6.53;;;23.80;68.80;;;;;;5095730;28;20444;-69
2023/06/22 03:23:43;;;;;;;8.20;7.50;;;23.80;68.90;;;;;;5095670;28;20841;-69
2023/06/22 03:26:11;;;;;;;8.30;7.50;;;23.80;69.30;;;;;;5095841;28;20444;-69
2023/06/22 03:28:38;;;;;;;7.77;7.10;;;23.80;69.30;;;;;;5095333;28;20448;-69
2023/06/22 03:31:07;;;;;;;8.70;7.80;;;23.80;69.60;;;;;;5095698;28;20488;-69
2023/06/22 03:33:34;;;;;;;8.40;7.60;;;23.80;69.70;;;;;;5095346;28;20471;-69
2023/06/22 03:36:01;;;;;;;8.33;7.47;;;23.80;69.80;;;;;;5095486;28;20436;-69
2023/06/22 03:38:28;;;;;;;8.50;7.73;;;23.80;69.80;;;;;;5095692;28;20439;-69
2023/06/22 03:40:55;;;;;;;8.23;7.43;;;23.80;70.00;;;;;;5095506;28;20467;-69
2023/06/22 03:43:22;;;;;;;8.33;6.90;;;23.80;70.40;;;;;;5095453;28;20464;-69
2023/06/22 03:45:48;;;;;;;8.30;7.60;;;23.90;70.70;;;;;;5094980;28;21001;-69
2023/06/22 03:48:16;;;;;;;7.70;7.00;;;23.90;70.70;;;;;;5093821;28;20501;-69
2023/06/22 03:50:44;;;;;;;9.37;8.53;;;23.90;70.20;;;;;;5095509;28;20440;-69
2023/06/22 03:53:11;;;;;;;7.70;7.00;;;23.90;70.20;;;;;;5095017;28;20475;-69
2023/06/22 03:55:41;;;;;;;8.83;7.43;;;23.90;70.50;;;;;;5095336;28;20436;-69
2023/06/22 03:58:09;;;;;;;7.27;6.63;;;24.00;70.90;;;;;;5095348;28;20428;-69
2023/06/22 04:00:36;;;;;;;9.33;8.20;;;24.00;70.90;;;;;;5094760;28;20960;-70
2023/06/22 04:03:03;;;;;;;8.70;7.87;;;24.00;70.50;;;;;;5094942;28;20466;-69
2023/06/22 04:05:31;;;;;;;8.03;7.30;;;24.00;70.30;;;;;;5098245;28;20486;-68
2023/06/22 04:07:58;;;;;;;9.53;8.73;;;24.00;70.80;;;;;;5096366;28;20444;-69
2023/06/22 04:10:25;;;;;;;10.30;9.40;;;24.10;70.90;;;;;;5095514;28;20448;-69
2023/06/22 04:12:52;;;;;;;9.13;8.20;;;24.00;71.10;;;;;;5094653;28;20475;-69
2023/06/22 04:15:19;;;;;;;12.67;8.43;;;24.00;71.20;;;;;;5094806;28;20812;-69
2023/06/22 04:17:46;;;;;;;10.90;8.67;;;24.10;71.50;;;;;;5094195;28;20972;-69
2023/06/22 04:20:12;;;;;;;9.63;8.73;;;24.00;71.70;;;;;;5094558;28;20440;-69
2023/06/22 04:22:40;;;;;;;10.17;9.17;;;24.10;71.90;;;;;;5094433;28;20474;-69
2023/06/22 04:25:08;;;;;;;11.93;8.33;;;24.00;72.00;;;;;;5094455;28;20560;-69
2023/06/22 04:27:37;;;;;;;10.77;9.67;;;24.00;71.60;;;;;;5094565;28;20878;-69
2023/06/22 04:30:04;;;;;;;12.80;11.20;;;24.00;72.20;;;;;;5094054;28;20937;-69
2023/06/22 04:32:31;;;;;;;12.60;11.00;;;24.00;72.30;;;;;;5094317;28;20493;-68
2023/06/22 04:35:00;;;;;;;14.40;11.30;;;24.00;72.50;;;;;;5094101;28;20936;-69
2023/06/22 04:37:27;;;;;;;12.27;10.23;;;23.90;72.80;;;;;;5094344;28;20448;-69
2023/06/22 04:39:55;;;;;;;12.63;10.30;;;23.90;73.60;;;;;;5094161;28;20450;-69
2023/06/22 04:42:22;;;;;;;11.13;9.83;;;23.90;73.90;;;;;;5093947;28;20831;-69
2023/06/22 04:44:49;;;;;;;12.83;10.90;;;23.90;74.70;;;;;;5093499;28;20486;-69
2023/06/22 04:47:15;;;;;;;12.90;11.77;;;23.90;75.60;;;;;;5093820;28;20956;-70
2023/06/22 04:49:43;;;;;;;18.10;10.80;;;23.80;76.80;;;;;;5095647;28;20448;-70
2023/06/22 04:52:12;;;;;;;12.77;11.40;;;23.70;76.90;;;;;;5104398;28;20563;-69
2023/06/22 04:54:47;;;;;;;12.90;11.10;;;23.70;77.50;;;;;;5097690;28;20446;-69
2023/06/22 04:57:15;;;;;;;11.83;10.83;;;23.70;77.90;;;;;;5096419;28;20428;-69
2023/06/22 04:59:43;;;;;;;13.83;10.80;;;23.80;78.30;;;;;;5094285;28;20447;-69
2023/06/22 05:02:09;;;;;;;12.27;11.17;;;23.80;78.00;;;;;;5094329;28;20468;-69
2023/06/22 05:04:38;;;;;;;11.30;9.30;;;23.80;77.70;;;;;;5093801;28;20491;-69
2023/06/22 05:07:05;;;;;;;12.03;11.00;;;23.90;77.80;;;;;;5094050;28;20479;-69
2023/06/22 05:09:33;;;;;;;15.33;12.07;;;23.90;77.50;;;;;;5093527;28;20481;-69
2023/06/22 05:12:02;;;;;;;12.63;11.43;;;23.90;77.10;;;;;;5093822;28;20529;-69
2023/06/22 05:14:30;;;;;;;11.50;10.43;;;23.90;77.20;;;;;;5093509;28;20487;-69
2023/06/22 05:16:58;;;;;;;12.57;10.03;;;24.00;77.30;;;;;;5093854;28;20444;-69
2023/06/22 05:19:33;;;;;;;13.17;11.87;;;24.00;77.10;;;;;;5093270;28;20517;-69
2023/06/22 05:22:00;;;;;;;11.90;10.70;;;24.00;77.10;;;;;;5092906;28;20501;-69
2023/06/22 05:24:26;;;;;;;12.00;11.00;;;24.00;77.10;;;;;;5093501;28;20444;-69
2023/06/22 05:26:53;;;;;;;13.27;11.97;;;24.10;77.00;;;;;;5093755;28;20452;-69
2023/06/22 05:29:21;;;;;;;14.43;11.33;;;24.10;77.10;;;;;;5093701;28;20508;-69
2023/06/22 05:31:50;;;;;;;12.90;11.80;;;24.10;76.80;;;;;;5093614;28;20447;-69
2023/06/22 05:34:16;;;;;;;13.03;11.53;;;24.10;77.10;;;;;;5093444;28;20483;-69
2023/06/22 05:36:43;;;;;;;13.50;12.20;;;24.10;77.30;;;;;;5093429;28;20863;-69
2023/06/22 05:39:14;;;;;;;13.10;11.63;;;24.10;77.60;;;;;;5093692;28;20521;-69
2023/06/22 05:41:43;;;;;;;12.80;11.60;;;24.10;78.00;;;;;;5093506;28;20505;-69
2023/06/22 05:44:09;;;;;;;12.47;11.37;;;24.10;78.10;;;;;;5093557;28;20509;-69
2023/06/22 05:46:36;;;;;;;12.93;11.63;;;24.10;78.20;;;;;;5093430;28;20490;-69
2023/06/22 05:49:05;;;;;;;14.00;12.70;;;24.10;78.00;;;;;;5092019;28;20443;-69
2023/06/22 05:51:32;;;;;;;15.07;11.90;;;24.10;78.20;;;;;;5093320;28;20439;-69
2023/06/22 05:53:58;;;;;;;12.53;11.33;;;24.20;78.00;;;;;;5093431;28;20443;-69
2023/06/22 05:56:25;;;;;;;13.87;10.33;;;24.20;78.00;;;;;;5092791;28;20439;-69
2023/06/22 05:58:52;;;;;;;13.33;12.13;;;24.20;77.80;;;;;;5093182;28;20460;-69
2023/06/22 06:01:19;;;;;;;14.37;12.37;;;24.30;78.20;;;;;;5093201;28;20565;-69
2023/06/22 06:03:45;;;;;;;13.10;11.60;;;24.30;77.90;;;;;;5091961;28;20482;-69
2023/06/22 06:06:14;;;;;;;11.70;10.60;;;24.30;77.60;;;;;;5094074;28;20514;-69
2023/06/22 06:08:40;;;;;;;17.30;12.83;;;24.30;77.70;;;;;;5093254;28;20443;-69
2023/06/22 06:11:07;;;;;;;12.67;11.37;;;24.40;77.70;;;;;;5094377;28;20451;-69
2023/06/22 06:13:34;;;;;;;13.47;12.27;;;24.40;77.20;;;;;;5096603;28;20984;-69
2023/06/22 06:16:01;;;;;;;12.10;10.63;;;24.40;77.50;;;;;;5096882;28;20529;-69
2023/06/22 06:18:28;;;;;;;12.83;11.63;;;24.40;77.80;;;;;;5096650;28;20535;-69
2023/06/22 06:20:54;;;;;;;13.40;12.00;;;24.40;77.60;;;;;;5096751;28;20458;-69
2023/06/22 06:23:23;;;;;;;11.90;10.70;;;24.40;77.80;;;;;;5096591;28;20471;-70
2023/06/22 06:25:49;;;;;;;13.20;11.90;;;24.40;78.10;;;;;;5096042;28;20472;-69
2023/06/22 06:28:16;;;;;;;13.03;11.83;;;24.40;78.20;;;;;;5096624;28;20456;-69
2023/06/22 06:30:43;;;;;;;13.20;12.00;;;24.40;78.10;;;;;;5096619;28;20534;-69
2023/06/22 06:33:10;;;;;;;13.53;12.13;;;24.30;78.30;;;;;;5096136;28;20472;-69
2023/06/22 06:35:37;;;;;;;14.10;12.83;;;24.30;78.40;;;;;;5096640;28;20491;-69
2023/06/22 06:38:04;;;;;;;13.50;12.10;;;24.30;78.40;;;;;;5094892;28;20881;-69
2023/06/22 06:40:32;;;;;;;14.00;12.70;;;24.20;78.60;;;;;;5095269;28;20447;-69
2023/06/22 06:42:59;;;;;;;15.00;13.50;;;24.20;79.00;;;;;;5096483;28;20474;-69
2023/06/22 06:45:28;;;;;;;15.77;14.17;;;24.20;79.60;;;;;;5096284;28;20486;-69
2023/06/22 06:47:55;;;;;;;15.77;14.10;;;24.10;80.20;;;;;;5096553;28;20443;-70
2023/06/22 06:50:22;;;;;;;17.80;16.10;;;24.10;82.20;;;;;;5096423;28;20451;-70
2023/06/22 06:52:50;;;;;;;18.73;16.33;;;24.10;82.70;;;;;;5096110;28;20999;-68
2023/06/22 06:55:17;;;;;;;22.60;16.03;;;24.10;83.70;;;;;;5096221;28;20436;-69
2023/06/22 06:57:48;;;;;;;13.70;12.43;;;24.10;84.50;;;;;;5096224;28;20440;-69
2023/06/22 07:00:16;;;;;;;17.50;15.90;;;24.10;84.70;;;;;;5096522;28;20519;-69
2023/06/22 07:02:44;;;;;;;15.90;14.60;;;24.20;85.20;;;;;;5102701;28;20463;-68
2023/06/22 07:05:11;;;;;;;13.93;12.63;;;24.30;86.10;;;;;;5106690;28;20476;-69
2023/06/22 07:07:38;;;;;;;13.33;11.37;;;24.50;86.70;;;;;;5111969;28;20439;-69
2023/06/22 07:10:07;;;;;;;14.67;13.43;;;24.60;86.30;;;;;;5108184;28;20447;-69
2023/06/22 07:12:33;;;;;;;13.23;11.97;;;24.70;85.70;;;;;;5101568;28;20471;-68
2023/06/22 07:15:04;;;;;;;13.30;12.20;;;24.90;84.80;;;;;;5099774;28;20839;-69
2023/06/22 07:17:31;;;;;;;13.80;12.60;;;25.00;84.10;;;;;;5099905;28;20448;-70
2023/06/22 07:19:58;;;;;;;13.67;12.47;;;25.20;84.30;;;;;;5100488;28;20517;-68
2023/06/22 07:22:25;;;;;;;15.13;13.83;;;25.40;84.00;;;;;;5099143;28;20476;-69
2023/06/22 07:24:51;;;;;;;13.23;11.87;;;25.50;83.60;;;;;;5099073;28;20450;-69
2023/06/22 07:27:19;;;;;;;14.03;12.80;;;25.70;83.20;;;;;;5098358;28;20955;-69
2023/06/22 07:29:46;;;;;;;11.70;10.60;;;25.90;83.00;;;;;;5096905;28;20450;-69
2023/06/22 07:32:14;;;;;;;12.60;11.50;;;26.20;81.40;;;;;;5097971;28;20929;-69
2023/06/22 07:34:41;;;;;;;11.23;10.13;;;26.50;80.60;;;;;;5098160;28;20444;-69
2023/06/22 07:37:08;;;;;;;13.30;12.10;;;26.70;79.80;;;;;;5096138;28;20451;-69
2023/06/22 07:39:35;;;;;;;13.20;11.90;;;26.80;78.20;;;;;;5096001;28;20505;-69
2023/06/22 07:42:02;;;;;;;12.87;11.70;;;26.90;76.70;;;;;;5096411;28;20463;-69
2023/06/22 07:44:28;;;;;;;11.13;9.80;;;27.10;77.30;;;;;;5095921;28;20455;-69
2023/06/22 07:46:55;;;;;;;12.80;11.80;;;27.20;75.80;;;;;;5095599;28;20479;-69
2023/06/22 07:49:23;;;;;;;12.73;11.53;;;27.40;74.90;;;;;;5095629;28;20527;-69
2023/06/22 07:51:50;;;;;;;12.53;11.33;;;27.50;74.70;;;;;;5095432;28;20944;-69
2023/06/22 07:54:17;;;;;;;11.40;10.30;;;27.70;74.00;;;;;;5095156;28;20450;-69
2023/06/22 07:56:44;;;;;;;10.97;9.83;;;27.80;72.60;;;;;;5095336;28;20944;-69
2023/06/22 07:59:10;;;;;;;10.47;9.00;;;28.00;70.80;;;;;;5095169;28;20452;-69
2023/06/22 08:01:37;;;;;;;9.33;8.63;;;28.20;69.80;;;;;;5099288;28;20448;-69
2023/06/22 08:04:05;;;;;;;11.67;10.50;;;28.50;68.60;;;;;;5100054;28;20444;-71
2023/06/22 08:06:34;;;;;;;13.50;10.47;;;28.60;67.60;;;;;;5099553;28;20483;-71
2023/06/22 08:09:00;;;;;;;10.60;8.63;;;28.70;65.00;;;;;;5099487;28;20447;-70
2023/06/22 08:11:28;;;;;;;11.20;10.20;;;28.80;65.20;;;;;;5099328;28;20945;-71
2023/06/22 08:13:55;;;;;;;8.63;7.80;;;28.90;64.60;;;;;;5099191;28;21012;-71
2023/06/22 08:16:22;;;;;;;12.40;10.63;;;29.10;63.90;;;;;;5099648;28;20538;-71
2023/06/22 08:18:49;;;;;;;11.03;10.03;;;29.40;64.30;;;;;;5099356;28;20452;-70
2023/06/22 08:21:15;;;;;;;11.20;10.03;;;29.60;64.00;;;;;;5099073;28;20455;-71
2023/06/22 08:23:44;;;;;;;10.17;9.13;;;29.90;63.40;;;;;;5099524;28;20470;-71
2023/06/22 08:26:10;;;;;;;9.80;8.80;;;29.90;61.30;;;;;;5099249;28;20487;-71
2023/06/22 08:28:37;;;;;;;10.67;9.60;;;30.00;60.10;;;;;;5099085;28;20448;-71
2023/06/22 08:31:04;;;;;;;7.87;7.27;;;30.10;60.20;;;;;;5098535;28;20451;-71
2023/06/22 08:33:31;;;;;;;10.30;9.20;;;30.10;59.70;;;;;;5098397;28;20885;-71
2023/06/22 08:35:59;;;;;;;10.33;7.80;;;30.30;59.80;;;;;;5097703;28;20444;-71
2023/06/22 08:38:26;;;;;;;9.13;8.33;;;30.50;59.20;;;;;;5098461;28;20454;-71
2023/06/22 08:40:54;;;;;;;8.07;7.47;;;30.70;58.30;;;;;;5098123;28;20443;-72
2023/06/22 08:43:21;;;;;;;8.40;7.60;;;30.80;57.40;;;;;;5096851;28;20472;-72
2023/06/22 08:45:48;;;;;;;8.97;7.50;;;30.90;57.10;;;;;;5096914;28;20479;-71
2023/06/22 08:48:14;;;;;;;6.50;5.87;;;31.10;57.10;;;;;;5097366;28;20451;-72
2023/06/22 08:50:41;;;;;;;7.90;7.00;;;31.30;56.80;;;;;;5096713;28;20451;-72
2023/06/22 08:53:08;;;;;;;7.37;6.77;;;31.50;56.70;;;;;;5098352;28;20467;-71
2023/06/22 08:55:35;;;;;;;7.60;6.47;;;31.70;56.00;;;;;;5098088;28;20443;-71
2023/06/22 08:58:03;;;;;;;7.83;7.23;;;32.00;55.60;;;;;;5098500;28;20471;-72
2023/06/22 09:00:34;;;;;;;7.73;7.13;;;32.30;54.90;;;;;;5098283;28;20439;-72
2023/06/22 09:03:01;;;;;;;7.17;6.60;;;32.50;54.00;;;;;;5098479;28;20557;-72
2023/06/22 09:05:28;;;;;;;6.73;6.23;;;32.90;52.40;;;;;;5097231;28;20432;-72
2023/06/22 09:07:55;;;;;;;7.43;6.73;;;33.10;51.00;;;;;;5097806;28;20864;-72
2023/06/22 09:10:22;;;;;;;7.43;6.73;;;33.40;50.60;;;;;;5096486;28;20449;-72
2023/06/22 09:12:49;;;;;;;7.50;6.90;;;33.60;50.10;;;;;;5097790;28;20984;-71
2023/06/22 09:15:18;;;;;;;8.07;7.27;;;33.60;49.10;;;;;;5097687;28;20443;-72
2023/06/22 09:17:46;;;;;;;7.97;7.27;;;33.70;48.60;;;;;;5097254;28;20516;-72
2023/06/22 09:20:13;;;;;;;7.40;6.80;;;33.80;48.50;;;;;;5097589;28;20439;-71
2023/06/22 09:22:40;;;;;;;7.90;7.20;;;34.00;48.50;;;;;;5098270;28;20561;-71
2023/06/22 09:25:07;;;;;;;7.90;7.13;;;34.20;48.30;;;;;;5098389;28;20443;-72
2023/06/22 09:27:34;;;;;;;6.67;6.17;;;34.30;48.10;;;;;;5105512;28;20474;-72
2023/06/22 09:30:02;;;;;;;7.90;7.30;;;34.40;46.90;;;;;;5099408;28;20458;-72
2023/06/22 09:32:31;;;;;;;6.93;6.33;;;34.60;46.50;;;;;;5099814;28;20503;-71
2023/06/22 09:34:58;;;;;;;7.50;6.80;;;34.70;46.30;;;;;;5096783;28;20443;-72
2023/06/22 09:37:25;;;;;;;8.00;7.30;;;34.90;46.00;;;;;;5096581;28;20446;-72
2023/06/22 09:39:51;;;;;;;7.77;7.17;;;35.00;45.40;;;;;;5095680;28;20465;-72
2023/06/22 09:42:18;;;;;;;7.57;6.97;;;35.20;45.20;;;;;;5095253;28;20467;-71
2023/06/22 09:44:45;;;;;;;7.03;6.53;;;35.50;44.60;;;;;;5096174;28;20443;-72
2023/06/22 09:47:12;;;;;;;7.67;7.00;;;35.70;44.00;;;;;;5100843;28;20484;-72
2023/06/22 09:49:40;;;;;;;7.83;7.23;;;35.90;43.00;;;;;;5099080;28;20482;-71
2023/06/22 09:52:07;;;;;;;7.60;7.10;;;36.20;42.20;;;;;;5101046;28;20730;-71
2023/06/22 09:54:34;;;;;;;7.63;6.93;;;36.30;41.90;;;;;;5101043;28;20449;-71
2023/06/22 09:57:01;;;;;;;6.90;6.40;;;36.40;41.60;;;;;;5099754;28;20731;-72
2023/06/22 09:59:28;;;;;;;6.73;6.23;;;36.40;40.80;;;;;;5111539;28;20245;-72
2023/06/22 10:01:55;;;;;;;6.67;6.17;;;36.30;40.00;;;;;;5103890;28;20221;-71
2023/06/22 10:04:21;;;;;;;7.70;7.00;;;36.20;40.20;;;;;;5098932;28;20208;-72
2023/06/22 10:06:49;;;;;;;7.27;6.77;;;35.90;40.80;;;;;;5099507;28;20499;-72
2023/06/22 10:09:16;;;;;;;7.00;6.50;;;35.60;41.30;;;;;;5100615;28;20489;-72
2023/06/22 10:11:43;;;;;;;9.00;7.33;;;35.20;42.10;;;;;;5100823;28;20458;-71
2023/06/22 10:14:10;;;;;;;8.27;7.47;;;34.90;43.40;;;;;;5100185;28;20486;-72
2023/06/22 10:16:37;;;;;;;6.73;6.20;;;34.50;44.30;;;;;;5100826;28;20451;-72
2023/06/22 10:19:04;;;;;;;8.13;7.40;;;34.10;45.20;;;;;;5100562;28;20458;-71
2023/06/22 10:21:31;;;;;;;8.77;8.07;;;33.70;46.00;;;;;;5100350;28;20455;-72
2023/06/22 10:24:05;;;;;;;11.40;8.73;;;33.40;46.80;;;;;;5098940;28;20940;-71
2023/06/22 10:26:32;;;;;;;7.70;7.10;;;33.00;48.00;;;;;;5101273;28;20531;-72
2023/06/22 10:28:59;;;;;;;7.87;7.10;;;32.70;49.30;;;;;;5099786;28;20447;-72
2023/06/22 10:31:27;;;;;;;9.93;7.43;;;32.30;50.20;;;;;;5100678;28;20460;-71
2023/06/22 10:33:54;;;;;;;10.20;8.30;;;31.90;51.00;;;;;;5099006;28;20469;-72
2023/06/22 10:36:21;;;;;;;9.73;8.83;;;31.60;51.90;;;;;;5096909;28;20447;-72
2023/06/22 10:38:48;;;;;;;12.43;9.60;;;31.30;53.20;;;;;;5096286;28;20534;-71
2023/06/22 10:41:16;;;;;;;12.73;9.00;;;31.10;55.30;;;;;;5097295;28;20443;-72
2023/06/22 10:43:44;;;;;;;12.67;10.53;;;30.80;57.00;;;;;;5095876;28;20546;-72
2023/06/22 10:46:11;;;;;;;10.23;9.00;;;30.50;58.20;;;;;;5096679;28;20530;-72
2023/06/22 10:48:38;;;;;;;10.33;9.23;;;30.20;59.30;;;;;;5096375;28;20487;-71
2023/06/22 10:51:05;;;;;;;9.87;8.87;;;29.90;60.80;;;;;;5096620;28;20447;-72
2023/06/22 10:53:32;;;;;;;11.77;10.67;;;29.70;63.30;;;;;;5096522;28;20464;-71
2023/06/22 10:55:59;;;;;;;12.80;10.93;;;29.40;65.30;;;;;;5097587;28;20990;-71
2023/06/22 10:58:27;;;;;;;12.40;11.17;;;29.20;67.20;;;;;;5099203;28;20471;-70
2023/06/22 11:00:54;;;;;;;10.13;9.17;;;29.00;69.30;;;;;;5099247;28;20476;-70
2023/06/22 11:03:21;;;;;;;10.87;9.77;;;28.70;70.10;;;;;;5097166;28;20491;-70
2023/06/22 11:05:48;;;;;;;13.17;9.47;;;28.50;71.10;;;;;;5096721;28;20538;-71
2023/06/22 11:08:15;;;;;;;14.47;10.83;;;28.40;72.40;;;;;;5096343;28;20480;-71
2023/06/22 11:10:43;;;;;;;11.83;9.73;;;28.20;73.60;;;;;;5096513;28;20490;-71
2023/06/22 11:13:10;;;;;;;12.73;10.73;;;28.10;75.30;;;;;;5096791;28;20464;-71
2023/06/22 11:15:39;;;;;;;12.40;10.03;;;28.00;76.10;;;;;;5096373;28;20547;-71
2023/06/22 11:18:07;;;;;;;16.47;10.17;;;27.90;76.80;;;;;;5096637;28;20448;-71
2023/06/22 11:20:38;;;;;;;13.23;11.63;;;27.80;77.30;;;;;;5096529;28;20462;-70
2023/06/22 11:23:05;;;;;;;12.03;10.87;;;27.80;78.10;;;;;;5096078;28;20468;-71
2023/06/22 11:25:34;;;;;;;11.47;10.27;;;27.70;79.30;;;;;;5096110;28;20948;-71
2023/06/22 11:28:02;;;;;;;15.50;10.00;;;27.60;80.90;;;;;;5096321;28;20479;-71
2023/06/22 11:30:29;;;;;;;13.47;10.33;;;27.50;80.00;;;;;;5096378;28;20451;-71
2023/06/22 11:32:58;;;;;;;11.87;10.73;;;27.50;80.70;;;;;;5096305;28;20519;-71
2023/06/22 11:35:25;;;;;;;11.60;10.40;;;27.40;81.10;;;;;;5096132;28;20967;-71
2023/06/22 11:37:52;;;;;;;13.70;10.67;;;27.40;82.00;;;;;;5095843;28;20543;-71
2023/06/22 11:40:19;;;;;;;16.43;14.73;;;27.40;82.50;;;;;;5107684;28;20447;-71
2023/06/22 11:42:45;;;;;;;15.37;13.60;;;27.40;83.40;;;;;;5101340;28;20471;-70
2023/06/22 11:45:14;;;;;;;14.33;13.00;;;27.40;84.30;;;;;;5097144;28;20515;-71
2023/06/22 11:47:40;;;;;;;13.63;12.27;;;27.50;84.50;;;;;;5096763;28;20480;-71
2023/06/22 11:50:10;;;;;;;14.63;13.33;;;27.60;83.70;;;;;;5096479;28;20944;-70
2023/06/22 11:52:37;;;;;;;13.90;12.73;;;27.80;83.30;;;;;;5097539;28;20463;-70
2023/06/22 11:55:05;;;;;;;14.93;13.40;;;28.10;83.00;;;;;;5098606;28;20859;-71
2023/06/22 11:57:33;;;;;;;14.10;12.80;;;28.30;82.00;;;;;;5099238;28;20448;-70
2023/06/22 12:00:00;;;;;;;15.50;14.03;;;28.70;80.60;;;;;;5099665;28;20505;-69
2023/06/22 12:02:27;;;;;;;15.00;13.80;;;29.20;79.30;;;;;;5099221;28;20479;-70
2023/06/22 12:04:56;;;;;;;14.00;12.70;;;29.50;76.80;;;;;;5099926;28;20452;-71
2023/06/22 12:07:24;;;;;;;13.10;12.00;;;29.80;75.50;;;;;;5100359;28;20480;-71
2023/06/22 12:09:51;;;;;;;14.63;13.27;;;30.00;74.20;;;;;;5099274;28;20455;-70
2023/06/22 12:12:17;;;;;;;14.33;13.07;;;30.40;73.50;;;;;;5100741;28;20478;-70
2023/06/22 12:14:44;;;;;;;14.20;12.97;;;31.20;72.10;;;;;;5100273;28;20448;-71
2023/06/22 12:17:11;;;;;;;15.80;14.50;;;31.90;68.00;;;;;;5099945;28;20478;-70
2023/06/22 12:19:38;;;;;;;15.97;14.70;;;32.10;64.40;;;;;;5099283;28;20956;-70
2023/06/22 12:22:05;;;;;;;17.53;16.07;;;32.00;63.90;;;;;;5099850;28;20459;-70
2023/06/22 12:24:33;;;;;;;17.20;15.73;;;31.70;63.50;;;;;;5099735;28;20450;-71
2023/06/22 12:27:02;;;;;;;15.97;14.57;;;31.50;64.40;;;;;;5099017;28;20479;-71
2023/06/22 12:29:28;;;;;;;16.53;15.07;;;31.40;65.20;;;;;;5099717;28;20816;-71
2023/06/22 12:31:55;;;;;;;17.03;15.70;;;31.30;65.30;;;;;;5099515;28;20843;-70
2023/06/22 12:34:22;;;;;;;19.53;17.93;;;31.50;66.10;;;;;;5097971;28;20444;-71
2023/06/22 12:36:49;;;;;;;17.37;14.67;;;31.60;65.80;;;;;;5097929;28;20447;-71
2023/06/22 12:39:16;;;;;;;18.33;16.93;;;31.60;65.50;;;;;;5100308;28;20459;-71